createdAt,value
2023-01-19T00:00:54.725Z,99924.13
2023-01-19T00:03:28.932Z,99917.13
2023-01-19T00:05:56.300Z,99906.84
2023-01-19T00:08:25.792Z,99914.75
2023-01-19T00:10:53.176Z,99913.00
2023-01-19T00:13:20.373Z,99926.06
2023-01-19T00:15:47.701Z,99920.16
2023-01-19T00:18:14.883Z,99942.03
2023-01-19T00:20:44.946Z,99950.69
2023-01-19T00:23:12.962Z,99941.97
2023-01-19T00:25:42.837Z,99944.59
2023-01-19T00:28:11.730Z,99939.22
2023-01-19T00:30:42.380Z,99941.97
2023-01-19T00:33:10.519Z,99935.25
2023-01-19T00:35:37.893Z,99936.47
2023-01-19T00:38:05.242Z,99945.38
2023-01-19T00:40:32.585Z,99944.47
2023-01-19T00:43:00.785Z,99935.78
2023-01-19T00:45:29.316Z,99941.88
2023-01-19T00:47:58.466Z,99948.91
2023-01-19T00:50:27.947Z,99939.81
2023-01-19T00:52:56.302Z,99931.88
2023-01-19T00:55:24.326Z,99938.91
2023-01-19T00:57:51.639Z,99924.28
2023-01-19T01:00:20.293Z,99919.94
2023-01-19T01:02:48.899Z,99935.56
2023-01-19T01:05:16.520Z,99933.81
2023-01-19T01:07:45.426Z,99932.94
2023-01-19T01:10:24.183Z,99931.97
2023-01-19T01:12:57.432Z,99939.69
2023-01-19T01:15:27.163Z,99944.09
2023-01-19T01:17:54.847Z,99931.88
2023-01-19T01:20:25.702Z,99945.06
2023-01-19T01:22:54.331Z,99929.31
2023-01-19T01:25:23.673Z,99924.75
2023-01-19T01:27:50.607Z,99917.59
2023-01-19T01:30:21.450Z,99914.88
2023-01-19T01:32:50.962Z,99914.06
2023-01-19T01:35:18.933Z,99934.94
2023-01-19T01:37:45.940Z,99929.63
2023-01-19T01:40:15.612Z,99945.41
2023-01-19T01:42:43.026Z,99942.81
2023-01-19T01:45:35.631Z,99929.50
2023-01-19T01:48:11.743Z,99930.31
2023-01-19T01:51:08.285Z,99924.22
2023-01-19T01:53:39.885Z,99933.81
2023-01-19T01:56:13.255Z,99926.88
2023-01-19T01:58:40.638Z,99927.78
2023-01-19T02:01:29.333Z,99914.59
2023-01-19T02:03:59.596Z,99913.81
2023-01-19T02:06:27.125Z,99930.38
2023-01-19T02:09:22.158Z,99909.28
2023-01-19T02:12:09.468Z,99928.44
2023-01-19T02:14:39.887Z,99920.34
2023-01-19T02:17:07.648Z,99918.50
2023-01-19T02:19:42.223Z,99909.63
2023-01-19T02:22:22.611Z,99915.72
2023-01-19T02:24:50.124Z,99918.66
2023-01-19T02:27:18.385Z,99915.16
2023-01-19T02:29:46.225Z,99914.25
2023-01-19T02:32:14.490Z,99922.22
2023-01-19T02:34:41.535Z,99923.09
2023-01-19T02:37:15.905Z,99932.81
2023-01-19T02:39:51.120Z,99928.25
2023-01-19T02:42:21.377Z,99930.16
2023-01-19T02:44:52.717Z,99929.63
2023-01-19T02:47:20.471Z,99926.31
2023-01-19T02:50:02.117Z,99926.44
2023-01-19T02:52:29.366Z,99927.25
2023-01-19T02:55:10.778Z,99923.13
2023-01-19T02:57:56.672Z,99917.78
2023-01-19T03:00:52.148Z,99915.38
2023-01-19T03:03:46.393Z,99908.56
2023-01-19T03:06:30.594Z,99904.50
2023-01-19T03:09:04.564Z,99894.03
2023-01-19T03:11:37.157Z,99906.50
2023-01-19T03:14:11.610Z,99904.13
2023-01-19T03:16:48.695Z,99907.00
2023-01-19T03:19:31.702Z,99900.25
2023-01-19T03:22:03.880Z,99902.16
2023-01-19T03:24:37.935Z,99909.41
2023-01-19T03:27:10.796Z,99894.53
2023-01-19T03:29:42.433Z,99894.72
2023-01-19T03:32:17.606Z,99884.41
2023-01-19T03:34:48.140Z,99878.53
2023-01-19T03:37:19.419Z,99886.47
2023-01-19T03:39:47.397Z,99890.94
2023-01-19T03:42:18.235Z,99888.50
2023-01-19T03:44:50.629Z,99897.41
2023-01-19T03:47:20.407Z,99899.25
2023-01-19T03:49:51.016Z,99888.84
2023-01-19T03:52:18.248Z,99884.50
2023-01-19T03:54:45.675Z,99883.63
2023-01-19T03:57:13.037Z,99894.13
2023-01-19T03:59:41.435Z,99890.81
2023-01-19T04:02:08.530Z,99885.63
2023-01-19T04:04:40.008Z,99887.47
2023-01-19T04:07:10.120Z,99889.22
2023-01-19T04:09:37.813Z,99882.44
2023-01-19T04:12:05.519Z,99884.31
2023-01-19T04:14:33.043Z,99894.97
2023-01-19T04:17:00.347Z,99890.72
2023-01-19T04:19:29.060Z,99890.81
2023-01-19T04:21:56.961Z,99892.59
2023-01-19T04:24:24.261Z,99903.19
2023-01-19T04:26:54.083Z,99902.31
2023-01-19T04:29:21.551Z,99906.03
2023-01-19T04:37:29.304Z,99916.03
2023-01-19T04:40:02.568Z,99921.38
2023-01-19T04:42:30.975Z,99923.53
2023-01-19T04:44:59.117Z,99929.75
2023-01-19T04:47:27.589Z,99926.28
2023-01-19T04:49:54.714Z,99915.16
2023-01-19T04:52:22.055Z,99912.66
2023-01-19T04:54:50.158Z,99913.63
2023-01-19T04:57:17.559Z,99906.00
2023-01-19T04:59:44.617Z,99910.44
2023-01-19T05:02:14.611Z,99917.47
2023-01-19T05:04:54.073Z,99919.44
2023-01-19T05:07:21.577Z,99928.16
2023-01-19T05:09:48.849Z,99936.97
2023-01-19T05:12:16.258Z,99937.91
2023-01-19T05:14:43.465Z,99927.50
2023-01-19T05:17:14.181Z,99937.94
2023-01-19T05:19:41.602Z,99946.88
2023-01-19T05:22:09.098Z,99921.88
2023-01-19T05:24:36.139Z,99923.63
2023-01-19T05:27:04.142Z,99921.25
2023-01-19T05:29:31.291Z,99914.56
2023-01-19T05:31:58.715Z,99913.09
2023-01-19T05:34:25.689Z,99912.25
2023-01-19T05:36:56.918Z,99929.69
2023-01-19T05:39:24.137Z,99930.63
2023-01-19T05:41:52.944Z,99919.41
2023-01-19T05:44:22.481Z,99927.19
2023-01-19T05:46:49.952Z,99932.75
2023-01-19T05:49:24.399Z,99932.66
2023-01-19T05:51:54.255Z,99936.31
2023-01-19T05:54:27.609Z,99947.47
2023-01-19T06:00:30.786Z,99924.66
2023-01-19T06:05:48.213Z,99925.63
2023-01-19T06:08:18.857Z,99931.69
2023-01-19T06:13:31.518Z,99929.69
2023-01-19T06:16:00.399Z,99935.13
2023-01-19T06:18:28.771Z,99934.41
2023-01-19T06:21:06.014Z,99933.75
2023-01-19T06:23:38.115Z,99937.84
2023-01-19T06:26:06.571Z,99930.91
2023-01-19T06:28:37.235Z,99927.25
2023-01-19T06:31:05.423Z,99944.50
2023-01-19T06:33:34.566Z,99943.81
2023-01-19T06:36:04.908Z,99947.06
2023-01-19T06:38:33.085Z,99941.81
2023-01-19T06:41:00.180Z,99932.19
2023-01-19T06:43:33.502Z,99941.59
2023-01-19T06:46:02.660Z,99947.47
2023-01-19T06:48:30.679Z,99948.88
2023-01-19T06:50:59.669Z,99945.22
2023-01-19T06:53:28.444Z,99951.88
2023-01-19T06:56:01.994Z,99942.13
2023-01-19T06:58:31.917Z,99955.00
2023-01-19T07:01:06.399Z,99957.31
2023-01-19T07:03:35.856Z,99965.00
2023-01-19T07:06:03.304Z,99969.13
2023-01-19T07:08:30.644Z,99969.81
2023-01-19T07:11:25.949Z,99984.34
2023-01-19T07:13:55.769Z,99985.88
2023-01-19T07:16:30.513Z,99993.41
2023-01-19T07:18:57.834Z,99979.97
2023-01-19T07:21:29.172Z,99996.06
2023-01-19T07:23:56.674Z,99992.84
2023-01-19T07:26:28.124Z,99986.53
2023-01-19T07:28:56.552Z,99991.56
2023-01-19T07:31:23.640Z,99991.34
2023-01-19T07:33:51.233Z,100000.63
2023-01-19T07:36:19.888Z,99991.91
2023-01-19T07:38:47.090Z,99982.97
2023-01-19T07:41:16.701Z,99988.75
2023-01-19T07:43:44.044Z,99975.25
2023-01-19T07:46:11.196Z,99982.91
2023-01-19T07:48:38.769Z,99997.28
2023-01-19T07:51:11.718Z,99989.78
2023-01-19T07:53:42.062Z,99993.50
2023-01-19T07:56:11.985Z,99984.19
2023-01-19T07:58:39.945Z,99969.72
2023-01-19T08:01:09.885Z,99984.13
2023-01-19T08:06:28.945Z,99981.13
2023-01-19T08:08:56.527Z,99979.78
2023-01-19T08:11:23.537Z,99986.13
2023-01-19T08:13:51.157Z,99982.91
2023-01-19T08:16:18.130Z,99974.25
2023-01-19T08:18:46.192Z,99960.53
2023-01-19T08:21:13.300Z,99978.13
2023-01-19T08:23:40.790Z,99962.91
2023-01-19T08:26:32.885Z,99958.56
2023-01-19T08:29:05.491Z,99963.97
2023-01-19T08:31:39.937Z,99967.63
2023-01-19T08:34:11.040Z,99960.00
2023-01-19T08:36:38.808Z,99967.41
2023-01-19T08:39:06.328Z,99964.28
2023-01-19T08:41:33.996Z,99973.34
2023-01-19T08:44:03.633Z,99949.88
2023-01-19T08:46:32.944Z,99947.50
2023-01-19T08:49:00.449Z,99943.41
2023-01-19T08:51:29.616Z,99947.28
2023-01-19T08:53:57.213Z,99961.72
2023-01-19T08:56:24.654Z,99947.84
2023-01-19T08:59:08.203Z,99941.00
2023-01-19T09:01:39.290Z,99929.31
2023-01-19T09:04:06.859Z,99921.75
2023-01-19T09:06:34.258Z,99912.38
2023-01-19T09:14:16.495Z,99904.88
2023-01-19T09:16:43.785Z,99893.88
2023-01-19T09:19:11.342Z,99883.50
2023-01-19T09:21:38.625Z,99881.06
2023-01-19T09:24:14.749Z,99879.25
2023-01-19T09:26:41.949Z,99866.97
2023-01-19T09:29:11.710Z,99863.09
2023-01-19T09:31:41.144Z,99856.06
2023-01-19T09:34:08.635Z,99851.94
2023-01-19T09:36:37.407Z,99853.91
2023-01-19T09:39:06.560Z,99861.16
2023-01-19T09:41:52.283Z,99838.50
2023-01-19T09:44:28.347Z,99831.06
2023-01-19T09:46:55.638Z,99831.66
2023-01-19T09:49:33.776Z,99819.19
2023-01-19T09:52:00.952Z,99817.47
2023-01-19T09:54:44.795Z,99822.16
2023-01-19T09:57:17.737Z,99807.94
2023-01-19T09:59:49.371Z,99810.06
2023-01-19T10:02:26.626Z,99799.56
2023-01-19T10:05:21.488Z,99802.09
2023-01-19T10:08:08.662Z,99804.31
2023-01-19T10:10:39.014Z,99804.47
2023-01-19T10:13:24.299Z,99811.34
2023-01-19T10:16:20.669Z,99820.63
2023-01-19T10:18:51.928Z,99821.34
2023-01-19T10:21:35.564Z,99824.97
2023-01-19T10:24:11.256Z,99821.25
2023-01-19T10:26:44.196Z,99829.91
2023-01-19T10:29:36.413Z,99842.47
2023-01-19T10:32:13.055Z,99839.06
2023-01-19T10:34:41.729Z,99840.66
2023-01-19T10:37:17.909Z,99831.91
2023-01-19T10:39:54.865Z,99830.13
2023-01-19T10:42:22.386Z,99815.97
2023-01-19T10:44:50.511Z,99811.25
2023-01-19T10:47:24.730Z,99820.34
2023-01-19T10:49:52.604Z,99824.84
2023-01-19T10:52:29.412Z,99837.81
2023-01-19T10:54:57.563Z,99834.13
2023-01-19T10:57:31.811Z,99824.16
2023-01-19T10:59:59.343Z,99827.44
2023-01-19T11:08:30.657Z,99813.81
2023-01-19T11:11:08.409Z,99825.56
2023-01-19T11:13:37.113Z,99811.59
2023-01-19T11:16:23.320Z,99813.97
2023-01-19T11:18:56.448Z,99811.91
2023-01-19T11:21:28.064Z,99810.47
2023-01-19T11:24:05.487Z,99804.09
2023-01-19T11:26:48.291Z,99809.47
2023-01-19T11:29:20.373Z,99800.09
2023-01-19T11:31:50.631Z,99814.34
2023-01-19T11:34:42.970Z,99809.22
2023-01-19T11:37:16.266Z,99822.75
2023-01-19T11:39:52.779Z,99809.97
2023-01-19T11:42:20.629Z,99812.88
2023-01-19T11:45:14.503Z,99807.25
2023-01-19T11:47:47.149Z,99798.13
2023-01-19T11:50:40.038Z,99795.31
2023-01-19T11:53:16.979Z,99796.78
2023-01-19T11:56:04.844Z,99790.13
2023-01-19T12:01:28.089Z,99805.53
2023-01-19T12:04:01.384Z,99791.78
2023-01-19T12:06:38.636Z,99769.19
2023-01-19T12:09:13.237Z,99781.97
2023-01-19T12:11:57.973Z,99775.22
2023-01-19T12:14:48.316Z,99784.72
2023-01-19T12:17:25.946Z,99788.66
2023-01-19T12:20:31.063Z,99792.81
2023-01-19T12:23:37.096Z,99793.19
2023-01-19T12:26:17.451Z,99791.50
2023-01-19T12:29:01.477Z,99798.31
2023-01-19T12:31:29.023Z,99799.16
2023-01-19T12:34:25.384Z,99812.88
2023-01-19T12:36:59.029Z,99809.78
2023-01-19T12:39:26.691Z,99807.19
2023-01-19T12:42:27.006Z,99831.03
2023-01-19T12:45:17.314Z,99815.66
2023-01-19T12:47:53.016Z,99810.50
2023-01-19T12:50:25.758Z,99815.66
2023-01-19T12:52:58.601Z,99822.84
2023-01-19T12:55:37.179Z,99820.19
2023-01-19T12:58:04.431Z,99834.75
2023-01-19T13:00:38.737Z,99832.59
2023-01-19T13:03:25.707Z,99832.69
2023-01-19T13:05:55.309Z,99827.00
2023-01-19T13:08:29.898Z,99818.28
2023-01-19T13:11:00.520Z,99837.88
2023-01-19T13:13:27.974Z,99842.66
2023-01-19T13:15:56.630Z,99840.88
2023-01-19T13:18:31.644Z,99836.09
2023-01-19T13:21:10.360Z,99838.22
2023-01-19T13:24:02.264Z,99837.03
2023-01-19T13:32:39.722Z,99835.19
2023-01-19T13:35:20.337Z,99838.88
2023-01-19T13:37:48.898Z,99835.34
2023-01-19T13:40:25.590Z,99823.13
2023-01-19T13:42:54.407Z,99830.19
2023-01-19T13:48:22.338Z,99838.84
2023-01-19T13:51:02.453Z,99828.66
2023-01-19T13:53:30.588Z,99820.72
2023-01-19T13:56:22.197Z,99840.28
2023-01-19T13:58:59.312Z,99849.28
2023-01-19T14:01:29.547Z,99846.66
2023-01-19T14:03:57.517Z,99850.75
2023-01-19T14:06:33.789Z,99850.69
2023-01-19T14:09:08.168Z,99852.63
2023-01-19T14:11:38.240Z,99841.00
2023-01-19T14:14:05.227Z,99844.03
2023-01-19T14:16:35.271Z,99840.22
2023-01-19T14:19:04.791Z,99840.66
2023-01-19T14:21:40.716Z,99839.69
2023-01-19T14:24:17.481Z,99826.22
2023-01-19T14:26:54.032Z,99829.28
2023-01-19T14:29:33.252Z,99828.44
2023-01-19T14:32:02.918Z,99828.91
2023-01-19T14:34:48.108Z,99829.34
2023-01-19T14:37:29.398Z,99823.25
2023-01-19T14:40:17.692Z,99835.16
2023-01-19T14:42:52.627Z,99833.88
2023-01-19T14:45:21.067Z,99831.88
2023-01-19T14:48:01.211Z,99840.97
2023-01-19T14:50:33.221Z,99835.41
2023-01-19T14:53:08.624Z,99835.72
2023-01-19T14:55:39.996Z,99813.69
2023-01-19T14:58:15.167Z,99835.81
2023-01-19T15:00:46.614Z,99825.13
2023-01-19T15:03:14.857Z,99833.69
2023-01-19T15:05:50.429Z,99824.09
2023-01-19T15:08:24.733Z,99834.78
2023-01-19T15:10:51.872Z,99834.78
2023-01-19T15:13:25.673Z,99833.34
2023-01-19T15:15:55.430Z,99838.03
2023-01-19T15:18:26.680Z,99837.13
2023-01-19T15:21:05.233Z,99845.63
2023-01-19T15:23:33.483Z,99852.53
2023-01-19T15:26:07.893Z,99845.31
2023-01-19T15:28:35.331Z,99842.28
2023-01-19T15:31:05.534Z,99837.53
2023-01-19T15:36:54.535Z,99844.63
2023-01-19T15:39:26.591Z,99851.28
2023-01-19T15:41:56.686Z,99844.63
2023-01-19T15:44:24.181Z,99842.31
2023-01-19T15:49:51.703Z,99850.69
2023-01-19T15:52:24.525Z,99846.69
2023-01-19T15:54:59.675Z,99854.03
2023-01-19T15:57:27.259Z,99855.09
2023-01-19T15:59:54.849Z,99854.59
2023-01-19T16:02:23.469Z,99848.00
2023-01-19T16:04:50.636Z,99858.69
2023-01-19T16:07:20.201Z,99843.91
2023-01-19T16:09:52.319Z,99845.91
2023-01-19T16:12:20.105Z,99850.38
2023-01-19T16:14:47.175Z,99856.75
2023-01-19T16:17:14.638Z,99854.47
2023-01-19T16:19:41.797Z,99847.50
2023-01-19T16:22:12.261Z,99857.50
2023-01-19T16:24:39.556Z,99856.13
2023-01-19T16:27:08.940Z,99860.78
2023-01-19T16:29:36.431Z,99866.41
2023-01-19T16:32:12.604Z,99868.22
2023-01-19T16:34:39.815Z,99856.47
2023-01-19T16:37:07.743Z,99865.47
2023-01-19T16:39:34.860Z,99872.03
2023-01-19T16:42:02.632Z,99873.66
2023-01-19T16:44:30.627Z,99865.66
2023-01-19T16:46:58.126Z,99889.34
2023-01-19T16:49:28.523Z,99885.16
2023-01-19T16:51:58.685Z,99872.19
2023-01-19T16:54:28.664Z,99867.91
2023-01-19T16:56:57.768Z,99876.47
2023-01-19T16:59:29.237Z,99876.47
2023-01-19T17:01:57.949Z,99874.78
2023-01-19T17:04:26.566Z,99871.50
2023-01-19T17:06:55.162Z,99877.03
2023-01-19T17:09:22.380Z,99869.03
2023-01-19T17:11:56.571Z,99885.50
2023-01-19T17:14:24.774Z,99870.06
2023-01-19T17:16:53.220Z,99882.59
2023-01-19T17:19:22.325Z,99877.81
2023-01-19T17:21:50.089Z,99883.13
2023-01-19T17:24:22.562Z,99879.03
2023-01-19T17:26:50.075Z,99884.63
2023-01-19T17:29:17.651Z,99874.91
2023-01-19T17:31:46.037Z,99892.75
2023-01-19T17:37:02.956Z,99906.91
2023-01-19T17:39:35.696Z,99896.38
2023-01-19T17:42:06.253Z,99908.78
2023-01-19T17:44:37.376Z,99910.66
2023-01-19T17:47:05.088Z,99906.56
2023-01-19T17:49:34.765Z,99910.41
2023-01-19T17:52:02.376Z,99918.28
2023-01-19T17:54:29.409Z,99922.06
2023-01-19T17:56:57.007Z,99924.63
2023-01-19T17:59:30.579Z,99923.00
2023-01-19T18:01:58.964Z,99918.09
2023-01-19T18:04:26.128Z,99912.03
2023-01-19T18:06:57.598Z,99909.50
2023-01-19T18:09:24.732Z,99908.06
2023-01-19T18:11:52.357Z,99916.81
2023-01-19T18:14:19.840Z,99926.69
2023-01-19T18:17:06.421Z,99911.06
2023-01-19T18:19:35.194Z,99917.78
2023-01-19T18:22:02.505Z,99927.66
2023-01-19T18:24:30.492Z,99900.63
2023-01-19T18:27:00.106Z,99917.53
2023-01-19T18:29:42.947Z,99911.75
2023-01-19T18:32:11.130Z,99920.84
2023-01-19T18:34:39.714Z,99929.72
2023-01-19T18:37:07.459Z,99920.97
2023-01-19T18:39:34.561Z,99922.16
2023-01-19T18:42:02.028Z,99928.44
2023-01-19T18:44:29.105Z,99925.22
2023-01-19T18:46:56.900Z,99940.22
2023-01-19T18:49:23.951Z,99951.31
2023-01-19T18:51:51.385Z,99948.81
2023-01-19T18:54:18.368Z,99950.00
2023-01-19T18:56:46.377Z,99946.78
2023-01-19T18:59:13.589Z,99951.31
2023-01-19T19:01:41.550Z,99945.78
2023-01-19T19:04:16.972Z,99941.78
2023-01-19T19:10:24.478Z,99956.66
2023-01-19T19:13:07.839Z,99937.56
2023-01-19T19:15:43.231Z,99947.38
2023-01-19T19:21:14.585Z,99953.78
2023-01-19T19:23:42.506Z,99949.81
2023-01-19T19:26:40.917Z,99970.75
2023-01-19T19:29:15.449Z,99972.84
2023-01-19T19:31:43.088Z,99965.31
2023-01-19T19:40:16.979Z,99975.66
2023-01-19T19:51:28.282Z,100004.06
2023-01-19T19:53:59.082Z,100009.09
2023-01-19T19:56:30.597Z,99998.03
2023-01-19T19:59:03.319Z,99988.28
2023-01-19T20:01:33.721Z,100001.09
2023-01-19T20:04:08.938Z,100020.22
2023-01-19T20:06:49.016Z,100010.53
2023-01-19T20:09:18.236Z,100016.63
2023-01-19T20:11:48.056Z,100019.19
2023-01-19T20:14:16.395Z,100029.47
2023-01-19T20:16:43.915Z,100038.28
2023-01-19T20:19:12.219Z,100024.44
2023-01-19T20:21:44.493Z,100037.66
2023-01-19T20:24:18.715Z,100039.34
2023-01-19T20:26:58.194Z,100042.19
2023-01-19T20:29:28.117Z,100038.88
2023-01-19T20:31:56.864Z,100046.81
2023-01-19T20:34:29.522Z,100055.66
2023-01-19T20:36:58.251Z,100050.81
2023-01-19T20:39:26.056Z,100056.06
2023-01-19T20:41:53.591Z,100050.88
2023-01-19T20:44:23.569Z,100057.03
2023-01-19T20:46:50.956Z,100055.41
2023-01-19T20:49:18.807Z,100067.81
2023-01-19T20:51:47.064Z,100082.00
2023-01-19T20:54:17.538Z,100067.66
2023-01-19T20:56:44.910Z,100068.44
2023-01-19T20:59:13.609Z,100081.03
2023-01-19T21:01:41.874Z,100087.91
2023-01-19T21:04:12.803Z,100067.03
2023-01-19T21:06:42.585Z,100083.88
2023-01-19T21:09:11.141Z,100065.50
2023-01-19T21:11:40.024Z,100072.47
2023-01-19T21:14:12.250Z,100075.41
2023-01-19T21:16:47.756Z,100075.47
2023-01-19T21:19:35.743Z,100074.78
2023-01-19T21:22:03.514Z,100082.72
2023-01-19T21:27:34.814Z,100084.66
2023-01-19T21:30:05.880Z,100077.72
2023-01-19T21:32:34.474Z,100078.69
2023-01-19T21:37:55.548Z,100084.66
2023-01-19T21:40:23.836Z,100080.47
2023-01-19T21:42:53.082Z,100077.97
2023-01-19T21:45:21.135Z,100074.66
2023-01-19T21:47:48.229Z,100068.91
2023-01-19T21:50:16.445Z,100065.25
2023-01-19T21:52:44.365Z,100063.53
2023-01-19T21:55:12.238Z,100060.94
2023-01-19T21:57:41.765Z,100070.50
2023-01-19T22:00:11.754Z,100079.31
2023-01-19T22:02:39.341Z,100065.25
2023-01-19T22:05:07.273Z,100060.69
2023-01-19T22:07:36.878Z,100065.97
2023-01-19T22:10:06.333Z,100057.97
2023-01-19T22:12:33.469Z,100067.84
2023-01-19T22:15:00.813Z,100064.28
2023-01-19T22:17:28.178Z,100059.03
2023-01-19T22:19:58.274Z,100078.38
2023-01-19T22:22:25.465Z,100072.28
2023-01-19T22:24:52.818Z,100081.09
2023-01-19T22:27:19.930Z,100073.41
2023-01-19T22:29:49.841Z,100069.75
2023-01-19T22:32:16.987Z,100064.72
2023-01-19T22:34:44.451Z,100076.28
2023-01-19T22:37:11.431Z,100084.16
2023-01-19T22:39:38.932Z,100086.78
2023-01-19T22:42:06.194Z,100090.50
2023-01-19T22:44:35.224Z,100095.81
2023-01-19T22:47:02.282Z,100091.53
2023-01-19T22:49:29.819Z,100103.78
2023-01-19T22:51:57.445Z,100097.69
2023-01-19T22:54:24.761Z,100096.81
2023-01-19T22:56:51.828Z,100091.59
2023-01-19T22:59:19.185Z,100094.31
2023-01-19T23:01:47.320Z,100094.44
2023-01-19T23:04:16.116Z,100097.31
2023-01-19T23:06:47.157Z,100103.72
2023-01-19T23:09:14.851Z,100114.66
2023-01-19T23:11:44.928Z,100123.78
2023-01-19T23:14:17.813Z,100123.84
2023-01-19T23:16:47.755Z,100111.94
2023-01-19T23:19:19.886Z,100119.78
2023-01-19T23:21:51.023Z,100136.88
2023-01-19T23:24:24.905Z,100135.34
2023-01-19T23:26:52.343Z,100138.09
2023-01-19T23:29:19.864Z,100145.25
2023-01-19T23:31:49.586Z,100155.03
2023-01-19T23:34:16.848Z,100162.31
2023-01-19T23:36:45.976Z,100160.63
2023-01-19T23:39:19.153Z,100157.28
2023-01-19T23:41:47.689Z,100170.44
2023-01-19T23:44:17.416Z,100170.63
2023-01-19T23:46:45.644Z,100161.94
2023-01-19T23:49:13.338Z,100176.13
2023-01-19T23:51:41.623Z,100176.97
2023-01-19T23:54:09.390Z,100187.50
2023-01-19T23:56:38.277Z,100184.09
2023-01-19T23:59:08.328Z,100180.41
